Time;durP1;ratioP1;P1;durP2;ratioP2;P2;SDS_P1;SDS_P2;PMS_P1;PMS_P2;Temp;Humidity;BMP_temperature;BMP_pressure;BME280_temperature;BME280_humidity;BME280_pressure;Samples;Min_cycle;Max_cycle;Signal;HPM_P1;HPM_P2
2021/08/27 00:02:03;;;;;;;;;3.75;3.75;;;;;17.16;59.27;101566.63;4966410;28;45550;-79
2021/08/27 00:04:28;;;;;;;;;7.00;5.00;;;;;17.15;59.59;101565.78;4966855;28;45603;-74
2021/08/27 00:06:53;;;;;;;;;8.00;5.00;;;;;17.13;59.91;101557.09;4960519;28;47840;-74
2021/08/27 00:09:19;;;;;;;;;6.75;5.50;;;;;17.11;59.58;101555.63;4964025;28;48395;-79
2021/08/27 00:11:44;;;;;;;;;6.50;5.00;;;;;17.08;59.82;101556.78;4970089;28;45695;-75
2021/08/27 00:14:09;;;;;;;;;7.50;6.00;;;;;17.07;60.01;101557.81;4966392;28;46009;-74
2021/08/27 00:16:35;;;;;;;;;7.00;5.50;;;;;17.05;60.14;101556.31;4967886;28;45422;-72
2021/08/27 00:19:00;;;;;;;;;7.50;5.00;;;;;17.04;60.27;101557.34;4971028;28;47118;-79
2021/08/27 00:21:26;;;;;;;;;7.00;4.50;;;;;17.04;60.34;101565.34;4965845;28;45532;-73
2021/08/27 00:23:51;;;;;;;;;6.00;5.00;;;;;17.03;60.45;101563.66;4987338;28;45486;-76
2021/08/27 00:26:16;;;;;;;;;7.00;5.00;;;;;16.98;60.49;101557.00;4965920;27;45603;-74
2021/08/27 00:28:42;;;;;;;;;4.00;4.00;;;;;16.97;60.66;101558.00;4966167;28;47925;-71
2021/08/27 00:31:07;;;;;;;;;6.50;5.00;;;;;16.97;60.56;101555.34;4961151;28;45720;-79
2021/08/27 00:33:33;;;;;;;;;6.75;5.50;;;;;16.97;60.75;101554.50;4971133;28;45477;-80
2021/08/27 00:35:58;;;;;;;;;5.75;5.75;;;;;16.96;60.89;101552.81;4976688;28;45627;-73
2021/08/27 00:38:23;;;;;;;;;7.25;4.25;;;;;16.94;61.09;101550.34;4961913;28;46134;-75
2021/08/27 00:40:49;;;;;;;;;8.00;6.25;;;;;16.95;60.82;101548.50;4967754;28;45632;-73
2021/08/27 00:43:15;;;;;;;;;6.00;5.00;;;;;16.93;60.89;101551.34;4964788;28;45530;-79
2021/08/27 00:45:43;;;;;;;;;7.50;5.00;;;;;16.94;61.26;101553.03;4962526;28;45661;-74
2021/08/27 00:48:09;;;;;;;;;11.00;5.50;;;;;16.93;61.24;101555.84;4967347;28;45491;-72
2021/08/27 00:50:34;;;;;;;;;6.25;4.00;;;;;16.92;61.51;101552.34;4978827;27;45475;-80
2021/08/27 00:53:01;;;;;;;;;5.50;4.00;;;;;16.89;61.76;101550.03;4968860;28;45483;-72
2021/08/27 00:55:26;;;;;;;;;7.50;6.00;;;;;16.87;61.34;101559.22;4966697;28;45593;-78
2021/08/27 00:57:52;;;;;;;;;7.50;5.75;;;;;16.84;61.43;101549.72;4969030;28;46280;-73
2021/08/27 01:00:17;;;;;;;;;5.50;4.75;;;;;16.83;61.73;101558.72;4959756;28;45558;-69
2021/08/27 01:02:43;;;;;;;;;2.50;1.00;;;;;16.81;62.07;101549.19;4965826;28;45651;-69
2021/08/27 01:05:10;;;;;;;;;5.25;4.25;;;;;16.78;61.80;101542.38;4961963;28;45567;-71
2021/08/27 01:07:46;;;;;;;;;6.00;5.00;;;;;16.72;61.99;101543.03;4965840;28;45557;-72
2021/08/27 01:10:29;;;;;;;;;4.75;3.00;;;;;16.68;61.82;101547.03;4961421;28;45705;-77
2021/08/27 01:13:01;;;;;;;;;6.00;5.00;;;;;16.63;62.21;101538.72;4969435;28;45661;-80
2021/08/27 01:15:35;;;;;;;;;9.00;5.25;;;;;16.56;62.48;101536.69;4972925;28;45486;-72
2021/08/27 01:18:22;;;;;;;;;7.25;6.00;;;;;16.50;62.61;101537.38;4962096;28;45718;-80
2021/08/27 01:21:17;;;;;;;;;8.25;5.50;;;;;16.43;63.00;101533.72;5030060;28;45553;-72
2021/08/27 01:23:50;;;;;;;;;7.25;6.00;;;;;16.37;63.11;101539.75;4973007;28;45519;-72
2021/08/27 01:26:20;;;;;;;;;7.25;6.00;;;;;16.33;62.98;101539.22;4967016;28;45771;-79
2021/08/27 01:28:49;;;;;;;;;7.00;6.50;;;;;16.29;63.27;101532.56;4976585;28;48469;-72
2021/08/27 01:31:16;;;;;;;;;7.25;6.75;;;;;16.24;63.50;101526.06;4994644;28;45464;-73
2021/08/27 01:33:57;;;;;;;;;6.75;6.25;;;;;16.21;63.62;101534.41;4976547;28;45415;-73
2021/08/27 01:36:25;;;;;;;;;7.75;5.25;;;;;16.18;63.91;101530.25;4960565;28;45589;-73
2021/08/27 01:38:51;;;;;;;;;8.25;6.00;;;;;16.15;64.13;101538.59;4978195;28;46079;-77
2021/08/27 01:41:17;;;;;;;;;7.50;6.00;;;;;16.11;64.07;101539.91;4977738;28;45524;-73
2021/08/27 01:43:44;;;;;;;;;8.75;7.00;;;;;16.08;64.09;101534.91;4959090;28;45553;-72
2021/08/27 01:46:11;;;;;;;;;8.50;5.50;;;;;16.04;64.35;101534.41;4972964;28;45472;-73
2021/08/27 01:48:38;;;;;;;;;8.25;7.25;;;;;16.01;64.34;101541.91;4976313;28;46291;-77
2021/08/27 01:51:09;;;;;;;;;11.75;4.50;;;;;15.97;64.64;101538.72;4965332;28;45602;-72
2021/08/27 01:53:37;;;;;;;;;6.75;5.75;;;;;15.93;64.74;101542.72;4965512;28;45479;-73
2021/08/27 01:56:04;;;;;;;;;9.50;6.00;;;;;15.90;64.92;101543.91;4958761;28;45603;-71
2021/08/27 01:58:31;;;;;;;;;8.25;6.00;;;;;15.87;64.83;101543.38;4960983;28;47125;-79
2021/08/27 02:00:57;;;;;;;;;6.00;5.75;;;;;15.84;65.28;101539.22;4968776;28;45624;-77
2021/08/27 02:03:27;;;;;;;;;6.25;4.75;;;;;15.82;65.06;101543.03;4963603;28;45513;-78
2021/08/27 02:05:53;;;;;;;;;7.00;6.25;;;;;15.79;65.15;101543.38;4973750;27;45495;-73
2021/08/27 02:08:20;;;;;;;;;9.50;6.00;;;;;15.76;65.03;101546.38;4961656;28;45568;-76
2021/08/27 02:10:47;;;;;;;;;6.00;5.00;;;;;15.74;65.36;101545.69;4964854;28;45635;-78
2021/08/27 02:13:12;;;;;;;;;10.25;7.00;;;;;15.69;65.71;101552.34;4965646;28;45833;-73
2021/08/27 02:15:40;;;;;;;;;5.00;5.00;;;;;15.68;65.67;101545.31;4973728;28;45532;-74
2021/08/27 02:18:06;;;;;;;;;8.00;5.00;;;;;15.67;65.84;101548.13;4974853;28;46029;-79
2021/08/27 02:20:33;;;;;;;;;10.25;7.25;;;;;15.63;65.57;101547.66;4967409;28;45542;-72
2021/08/27 02:23:02;;;;;;;;;9.50;6.25;;;;;15.61;66.16;101538.97;4970229;28;45527;-72
2021/08/27 02:25:31;;;;;;;;;7.50;7.00;;;;;15.60;65.65;101550.63;4964914;28;45741;-76
2021/08/27 02:27:57;;;;;;;;;9.00;4.75;;;;;15.57;66.18;101556.28;4960966;28;46003;-72
2021/08/27 02:30:25;;;;;;;;;10.25;6.00;;;;;15.54;66.04;101558.44;4964731;28;45697;-72
2021/08/27 02:32:51;;;;;;;;;9.50;5.25;;;;;15.53;66.51;101556.75;4966971;28;45442;-73
2021/08/27 02:35:17;;;;;;;;;7.25;7.00;;;;;15.51;67.02;101554.28;4974786;28;45677;-75
2021/08/27 02:37:47;;;;;;;;;8.50;7.00;;;;;15.54;66.63;101555.78;4968361;28;50033;-71
2021/08/27 02:40:13;;;;;;;;;8.00;6.75;;;;;15.55;66.84;101539.59;4961057;28;45647;-73
2021/08/27 02:42:39;;;;;;;;;9.25;7.50;;;;;15.58;66.63;101547.31;4986497;28;45754;-76
2021/08/27 02:45:07;;;;;;;;;13.25;9.25;;;;;15.58;66.83;101549.97;4981890;28;45416;-71
2021/08/27 02:47:32;;;;;;;;;11.75;8.00;;;;;15.58;66.33;101543.78;4970238;28;46723;-72
2021/08/27 02:49:58;;;;;;;;;8.00;7.00;;;;;15.62;66.42;101553.94;4964347;28;45500;-76
2021/08/27 02:52:41;;;;;;;;;5.00;5.00;;;;;15.64;66.66;101546.63;4970175;28;45689;-77
2021/08/27 02:55:15;;;;;;;;;10.00;6.25;;;;;15.68;66.80;101552.50;4963332;27;45508;-69
2021/08/27 02:57:59;;;;;;;;;11.25;7.75;;;;;15.70;66.45;101545.16;4962045;28;46323;-71
2021/08/27 03:00:27;;;;;;;;;10.00;7.00;;;;;15.72;66.63;101548.50;4961707;28;45612;-77
2021/08/27 03:02:54;;;;;;;;;7.00;6.00;;;;;15.74;66.56;101545.69;4969291;28;45449;-73
2021/08/27 03:05:22;;;;;;;;;7.25;6.00;;;;;15.75;66.59;101550.88;4961534;28;45536;-69
2021/08/27 03:07:56;;;;;;;;;9.00;6.00;;;;;15.76;66.39;101543.72;4962077;28;47182;-69
2021/08/27 03:10:30;;;;;;;;;10.00;5.75;;;;;15.76;66.89;101541.88;4955142;28;45477;-77
2021/08/27 03:13:05;;;;;;;;;9.50;7.50;;;;;15.78;66.99;101537.22;4964651;28;45604;-71
2021/08/27 03:15:44;;;;;;;;;8.25;6.25;;;;;15.79;66.60;101535.38;4965782;28;45661;-71
2021/08/27 03:18:22;;;;;;;;;6.00;6.00;;;;;15.79;66.37;101535.38;4974845;28;46252;-70
2021/08/27 03:21:14;;;;;;;;;6.00;4.25;;;;;15.82;66.84;101537.72;4974633;28;45537;-71
2021/08/27 03:23:41;;;;;;;;;8.75;6.00;;;;;15.83;66.53;101539.38;4975770;28;45499;-70
2021/08/27 03:26:09;;;;;;;;;9.25;5.25;;;;;15.85;66.98;101540.03;4965408;28;46301;-75
2021/08/27 03:28:41;;;;;;;;;7.50;6.00;;;;;15.88;66.70;101539.72;4971840;28;46157;-72
2021/08/27 03:31:08;;;;;;;;;10.75;7.75;;;;;15.88;66.77;101535.22;4964847;28;45638;-76
2021/08/27 03:33:34;;;;;;;;;9.50;6.75;;;;;15.89;67.21;101536.88;4971160;28;45601;-70
2021/08/27 03:36:00;;;;;;;;;9.25;6.75;;;;;15.89;66.76;101530.72;4967876;28;45357;-72
2021/08/27 03:38:28;;;;;;;;;8.75;6.50;;;;;15.92;66.79;101533.03;4973065;28;46193;-72
2021/08/27 03:40:55;;;;;;;;;10.75;5.75;;;;;15.93;66.66;101540.06;4971836;28;45661;-77
2021/08/27 03:43:22;;;;;;;;;7.50;7.50;;;;;15.93;66.57;101531.25;4958178;28;45551;-70
2021/08/27 03:45:49;;;;;;;;;7.00;5.00;;;;;15.97;66.85;101532.56;4968896;28;45583;-71
2021/08/27 03:48:15;;;;;;;;;9.00;7.00;;;;;15.98;66.51;101534.25;4961757;28;46734;-69
2021/08/27 03:50:41;;;;;;;;;11.00;7.00;;;;;16.01;66.69;101541.91;4962489;28;45492;-68
2021/08/27 03:53:08;;;;;;;;;15.00;8.00;;;;;16.02;66.62;101533.75;4967277;28;45562;-72
2021/08/27 03:55:34;;;;;;;;;7.50;6.75;;;;;16.01;66.38;101537.41;5001454;28;45974;-77
2021/08/27 03:58:00;;;;;;;;;10.75;6.50;;;;;16.00;66.63;101537.56;4971411;28;45636;-72
2021/08/27 04:00:26;;;;;;;;;12.00;7.00;;;;;15.95;66.54;101532.75;4959787;28;45705;-69
2021/08/27 04:02:52;;;;;;;;;9.50;8.75;;;;;15.90;66.96;101527.91;4963628;28;45378;-69
2021/08/27 04:05:19;;;;;;;;;10.75;6.50;;;;;15.86;67.14;101523.88;4974899;28;45519;-69
2021/08/27 04:07:46;;;;;;;;;6.50;6.25;;;;;15.82;67.24;101527.88;4988045;27;46148;-69
2021/08/27 04:10:15;;;;;;;;;12.25;7.00;;;;;15.76;67.21;101528.53;4967438;28;45547;-70
2021/08/27 04:12:41;;;;;;;;;9.50;6.00;;;;;15.71;67.71;101527.38;4960706;28;45485;-69
2021/08/27 04:15:12;;;;;;;;;8.00;5.25;;;;;15.66;67.48;101523.31;4966426;28;45568;-71
2021/08/27 04:17:38;;;;;;;;;10.00;6.50;;;;;15.61;68.11;101522.97;4974242;28;47001;-69
2021/08/27 04:20:10;;;;;;;;;10.00;6.00;;;;;15.57;67.88;101526.97;4964948;28;45839;-72
2021/08/27 04:22:36;;;;;;;;;9.50;7.50;;;;;15.53;68.24;101519.44;4957230;28;45496;-70
2021/08/27 04:25:03;;;;;;;;;11.00;7.25;;;;;15.50;68.67;101512.63;4960146;28;45550;-77
2021/08/27 04:27:28;;;;;;;;;8.25;7.50;;;;;15.46;68.71;101520.13;4956899;28;46103;-71
2021/08/27 04:29:53;;;;;;;;;7.25;6.50;;;;;15.44;68.95;101521.28;4968597;28;45993;-71
2021/08/27 04:32:20;;;;;;;;;9.25;7.25;;;;;15.40;68.87;101523.41;4960960;28;45640;-70
2021/08/27 04:34:45;;;;;;;;;8.00;7.50;;;;;15.39;68.93;101535.06;4969301;28;45542;-68
2021/08/27 04:37:11;;;;;;;;;13.50;9.00;;;;;15.39;68.84;101531.59;4953888;28;47218;-71
2021/08/27 04:39:36;;;;;;;;;7.00;6.75;;;;;15.41;69.02;101538.41;4971288;28;47658;-68
2021/08/27 04:42:03;;;;;;;;;13.75;8.00;;;;;15.43;69.18;101527.59;4964327;28;45503;-70
2021/08/27 04:44:29;;;;;;;;;7.50;6.75;;;;;15.46;69.21;101535.28;4962088;28;45631;-76
2021/08/27 04:46:54;;;;;;;;;8.50;7.75;;;;;15.46;69.27;101533.44;4967365;28;46904;-71
2021/08/27 04:49:20;;;;;;;;;9.75;7.00;;;;;15.48;69.18;101543.94;4963300;28;45770;-68
2021/08/27 04:51:46;;;;;;;;;6.75;6.00;;;;;15.51;69.50;101538.28;4960936;28;45536;-71
2021/08/27 04:54:11;;;;;;;;;11.50;8.00;;;;;15.54;69.13;101543.28;4963963;28;45719;-70
2021/08/27 04:56:37;;;;;;;;;7.75;7.75;;;;;15.57;69.15;101548.28;4966844;28;46286;-75
2021/08/27 04:59:02;;;;;;;;;9.25;7.50;;;;;15.58;69.18;101541.13;4980510;28;45627;-71
2021/08/27 05:01:28;;;;;;;;;10.00;7.75;;;;;15.60;69.20;101558.63;4968935;28;45608;-71
2021/08/27 05:03:53;;;;;;;;;13.75;9.50;;;;;15.63;68.99;101546.81;4966723;28;45502;-72
2021/08/27 05:06:19;;;;;;;;;10.00;7.00;;;;;15.65;69.38;101550.13;4965749;28;45911;-71
2021/08/27 05:08:44;;;;;;;;;10.75;8.25;;;;;15.65;69.37;101550.97;4970573;28;45573;-69
2021/08/27 05:11:10;;;;;;;;;11.50;8.00;;;;;15.67;69.50;101553.47;4980412;28;45943;-72
2021/08/27 05:13:35;;;;;;;;;12.50;8.00;;;;;15.69;69.37;101559.47;4967712;28;45570;-72
2021/08/27 05:16:01;;;;;;;;;14.25;7.75;;;;;15.71;69.37;101562.03;4965442;28;45580;-70
2021/08/27 05:18:29;;;;;;;;;11.25;8.00;;;;;15.73;69.30;101562.69;4961971;28;46315;-68
2021/08/27 05:20:54;;;;;;;;;11.00;8.00;;;;;15.74;69.23;101559.84;4968864;28;45818;-74
2021/08/27 05:23:20;;;;;;;;;8.25;7.00;;;;;15.76;69.07;101560.53;4958987;28;45653;-71
2021/08/27 05:25:45;;;;;;;;;15.25;10.25;;;;;15.77;69.25;101564.84;4955500;28;46317;-74
2021/08/27 05:28:11;;;;;;;;;9.75;9.00;;;;;15.82;69.07;101564.34;4962387;28;45515;-68
2021/08/27 05:30:36;;;;;;;;;9.50;7.25;;;;;15.84;69.25;101565.03;4957915;28;45514;-76
2021/08/27 05:33:02;;;;;;;;;10.25;9.25;;;;;15.88;69.12;101569.06;4997499;28;45400;-68
2021/08/27 05:35:27;;;;;;;;;13.00;11.25;;;;;15.91;69.28;101576.72;4963315;28;47176;-71
2021/08/27 05:37:52;;;;;;;;;13.00;8.00;;;;;15.93;69.48;101580.06;4959754;28;46003;-73
2021/08/27 05:40:18;;;;;;;;;13.50;9.75;;;;;15.97;69.33;101573.38;4958690;28;45452;-69
2021/08/27 05:42:44;;;;;;;;;11.75;9.50;;;;;16.03;69.18;101579.91;4962822;28;45552;-68
2021/08/27 05:45:10;;;;;;;;;13.75;9.00;;;;;16.05;68.95;101584.06;4967860;28;45953;-72
2021/08/27 05:47:37;;;;;;;;;13.75;12.25;;;;;16.09;68.96;101588.06;4962614;28;45747;-69
2021/08/27 05:50:03;;;;;;;;;12.25;9.25;;;;;16.15;69.27;101597.25;4965886;28;45738;-71
2021/08/27 05:52:29;;;;;;;;;15.25;9.75;;;;;16.18;68.96;101588.91;4970107;28;45636;-69
2021/08/27 05:54:54;;;;;;;;;14.00;8.25;;;;;16.23;68.89;101599.09;4959277;28;46997;-74
2021/08/27 05:57:19;;;;;;;;;13.00;10.00;;;;;16.26;68.95;101596.09;4960951;28;45532;-71
2021/08/27 05:59:45;;;;;;;;;16.75;10.75;;;;;16.31;68.74;101596.41;4977433;28;45865;-68
2021/08/27 06:02:10;;;;;;;;;10.75;8.00;;;;;16.32;68.80;101598.94;4974824;28;45566;-69
2021/08/27 06:04:36;;;;;;;;;12.00;10.50;;;;;16.38;68.95;101599.28;4971451;28;45499;-71
2021/08/27 06:07:01;;;;;;;;;13.00;11.25;;;;;16.42;68.70;101604.09;4965993;28;45577;-68
2021/08/27 06:09:27;;;;;;;;;14.75;11.50;;;;;16.47;68.93;101598.28;4978173;28;45925;-72
2021/08/27 06:11:52;;;;;;;;;14.25;9.75;;;;;16.52;68.59;101602.09;4960874;28;45666;-72
2021/08/27 06:14:17;;;;;;;;;16.50;11.25;;;;;16.58;68.51;101605.09;4961516;28;46117;-72
2021/08/27 06:16:43;;;;;;;;;11.50;10.25;;;;;16.63;68.47;101598.25;4964254;28;45763;-74
2021/08/27 06:19:08;;;;;;;;;14.50;13.00;;;;;16.70;68.53;101599.25;4968945;28;45876;-66
2021/08/27 06:21:37;;;;;;;;;17.50;10.25;;;;;16.79;68.38;101607.25;4986762;27;45587;-72
2021/08/27 06:24:03;;;;;;;;;14.75;12.25;;;;;16.84;67.91;101611.13;4970261;28;46383;-73
2021/08/27 06:26:28;;;;;;;;;16.50;14.50;;;;;16.90;67.91;101615.75;4973024;28;45380;-71
2021/08/27 06:28:54;;;;;;;;;16.00;11.50;;;;;16.96;68.09;101609.75;4967444;28;45752;-66
2021/08/27 06:31:20;;;;;;;;;17.75;14.00;;;;;17.04;67.61;101613.41;4961819;28;45504;-75
2021/08/27 06:33:45;;;;;;;;;17.50;13.25;;;;;17.14;67.74;101622.91;4970705;28;45657;-68
2021/08/27 06:36:11;;;;;;;;;17.50;15.00;;;;;17.28;67.22;101618.66;4964287;28;45641;-68
2021/08/27 06:38:36;;;;;;;;;13.50;12.50;;;;;17.48;66.64;101620.94;4966554;28;45591;-67
2021/08/27 06:41:04;;;;;;;;;15.00;13.50;;;;;17.70;66.90;101622.84;4978102;28;45467;-68
2021/08/27 06:43:32;;;;;;;;;20.25;13.75;;;;;17.96;65.47;101624.41;4963268;28;45676;-75
2021/08/27 06:46:01;;;;;;;;;18.75;14.50;;;;;18.20;65.12;101628.75;4981984;28;45431;-68
2021/08/27 06:48:28;;;;;;;;;17.50;13.25;;;;;18.40;64.55;101634.50;4965679;28;45557;-71
2021/08/27 06:50:53;;;;;;;;;16.75;14.00;;;;;18.69;64.24;101637.25;4966267;28;45711;-71
2021/08/27 06:53:20;;;;;;;;;16.25;14.50;;;;;18.89;63.29;101626.91;4962045;28;46807;-68
2021/08/27 06:55:45;;;;;;;;;17.00;14.25;;;;;18.97;62.69;101630.50;4969627;28;45326;-72
2021/08/27 06:58:11;;;;;;;;;17.50;14.75;;;;;18.98;62.68;101627.63;4970277;28;45364;-69
2021/08/27 07:00:37;;;;;;;;;16.25;12.50;;;;;18.98;62.72;101635.66;4963277;28;45504;-68
2021/08/27 07:03:02;;;;;;;;;19.75;13.75;;;;;18.97;62.81;101647.41;4962967;28;46142;-70
2021/08/27 07:05:28;;;;;;;;;17.75;14.00;;;;;18.93;62.57;101638.06;4967542;28;45480;-68
2021/08/27 07:07:54;;;;;;;;;17.00;13.25;;;;;18.96;62.25;101655.63;4993256;28;45639;-68
2021/08/27 07:10:19;;;;;;;;;14.75;11.00;;;;;18.96;62.25;101643.03;5004554;27;45458;-73
2021/08/27 07:12:46;;;;;;;;;15.00;11.25;;;;;19.00;62.27;101643.53;4971706;28;46048;-70
2021/08/27 07:15:12;;;;;;;;;14.75;13.50;;;;;19.07;62.26;101642.63;4979734;28;45961;-69
2021/08/27 07:17:38;;;;;;;;;15.75;12.50;;;;;19.18;62.07;101649.34;4962394;28;45500;-73
2021/08/27 07:20:04;;;;;;;;;17.50;12.50;;;;;19.39;61.91;101645.94;4966699;28;45576;-68
2021/08/27 07:22:29;;;;;;;;;13.25;12.25;;;;;19.57;61.14;101655.47;4961147;28;45995;-69
2021/08/27 07:24:55;;;;;;;;;16.75;14.50;;;;;19.76;60.26;101652.22;4963391;28;45749;-69
2021/08/27 07:27:20;;;;;;;;;12.75;11.00;;;;;19.85;58.89;101651.09;4960388;28;45560;-75
2021/08/27 07:29:45;;;;;;;;;16.50;12.75;;;;;19.84;59.71;101653.97;4967102;28;45516;-69
2021/08/27 07:32:11;;;;;;;;;14.00;11.25;;;;;20.05;60.12;101653.16;4960849;28;47177;-67
2021/08/27 07:34:40;;;;;;;;;14.50;13.75;;;;;20.47;59.13;101660.41;5003135;28;45737;-67
2021/08/27 07:37:10;;;;;;;;;15.75;14.25;;;;;21.12;57.80;101663.03;4964375;28;45472;-67
2021/08/27 07:39:36;;;;;;;;;16.75;13.75;;;;;21.63;56.93;101655.47;4967394;28;46752;-68
2021/08/27 07:42:02;;;;;;;;;13.50;12.00;;;;;22.12;51.59;101658.97;4966187;28;46166;-72
2021/08/27 07:44:28;;;;;;;;;16.00;13.25;;;;;22.16;55.03;101662.09;4961631;28;45570;-71
2021/08/27 07:46:53;;;;;;;;;15.50;11.25;;;;;22.25;54.23;101660.88;4960326;28;45502;-68
2021/08/27 07:49:18;;;;;;;;;11.00;9.00;;;;;22.45;53.90;101669.84;4961220;28;45659;-67
2021/08/27 07:51:47;;;;;;;;;11.00;9.50;;;;;22.71;53.25;101662.78;5005995;28;46260;-73
2021/08/27 07:54:16;;;;;;;;;9.00;7.00;;;;;23.21;51.80;101657.78;4961826;28;45735;-68
2021/08/27 07:56:41;;;;;;;;;15.25;8.75;;;;;23.47;51.38;101656.06;4961039;28;45814;-72
2021/08/27 07:59:07;;;;;;;;;11.25;9.00;;;;;24.79;49.31;101659.88;4966283;28;45452;-67
2021/08/27 08:01:32;;;;;;;;;12.25;8.00;;;;;25.10;47.98;101655.44;4971768;27;45503;-69
2021/08/27 08:04:00;;;;;;;;;4.00;1.50;;;;;25.35;45.42;101668.94;4965766;28;45593;-71
2021/08/27 08:06:26;;;;;;;;;9.00;6.00;;;;;25.64;46.00;101670.06;4963531;28;45590;-69
2021/08/27 08:08:51;;;;;;;;;6.25;5.00;;;;;25.46;43.59;101670.88;4977558;28;45491;-74
2021/08/27 08:11:17;;;;;;;;;9.00;8.00;;;;;26.09;44.96;101669.69;4956397;28;47580;-70
2021/08/27 08:13:42;;;;;;;;;9.50;8.00;;;;;26.47;42.21;101673.09;4968280;28;45569;-70
2021/08/27 08:16:08;;;;;;;;;7.00;6.00;;;;;26.10;41.07;101675.94;4970956;28;45455;-71
2021/08/27 08:18:35;;;;;;;;;9.00;5.00;;;;;26.12;42.07;101673.81;4966443;28;45596;-71
2021/08/27 08:21:01;;;;;;;;;7.50;4.75;;;;;28.76;41.74;101680.81;4975654;28;46546;-74
2021/08/27 08:23:27;;;;;;;;;6.25;4.25;;;;;30.45;38.55;101669.31;4962363;28;45957;-71
2021/08/27 08:25:53;;;;;;;;;6.00;5.75;;;;;33.03;34.94;101674.25;4958198;28;45497;-72
2021/08/27 08:28:18;;;;;;;;;4.50;4.50;;;;;34.36;32.42;101675.50;4967259;28;45461;-71
2021/08/27 08:30:43;;;;;;;;;6.75;4.00;;;;;34.21;31.83;101671.75;4959159;28;51162;-71
2021/08/27 08:33:09;;;;;;;;;7.50;5.50;;;;;33.87;31.33;101679.09;4961706;28;45858;-69
2021/08/27 08:35:34;;;;;;;;;6.50;3.75;;;;;34.22;31.54;101681.66;4966345;28;45882;-71
2021/08/27 08:38:00;;;;;;;;;3.00;3.00;;;;;34.25;26.63;101683.00;4958145;28;45521;-72
2021/08/27 08:40:25;;;;;;;;;4.50;3.75;;;;;34.10;29.49;101681.19;4960499;28;46299;-71
2021/08/27 08:42:50;;;;;;;;;6.00;4.00;;;;;34.31;29.83;101681.84;4966607;28;45572;-78
2021/08/27 08:45:16;;;;;;;;;6.75;3.25;;;;;34.01;29.81;101693.81;4962272;28;45987;-70
2021/08/27 08:47:45;;;;;;;;;7.50;5.00;;;;;33.94;29.97;101682.34;4980477;27;45576;-67
2021/08/27 08:50:12;;;;;;;;;4.75;3.50;;;;;34.75;27.46;101686.41;4960748;28;46308;-74
2021/08/27 08:52:40;;;;;;;;;5.00;3.25;;;;;36.78;25.34;101688.59;4964772;28;45679;-69
2021/08/27 08:55:07;;;;;;;;;3.25;2.25;;;;;37.47;23.33;101694.13;4961225;28;45588;-67
2021/08/27 08:57:32;;;;;;;;;5.50;4.50;;;;;37.23;25.68;101697.09;4980455;27;45555;-70
2021/08/27 08:59:58;;;;;;;;;4.25;2.75;;;;;38.15;24.71;101700.59;4971892;28;46232;-69
2021/08/27 09:02:23;;;;;;;;;3.25;2.25;;;;;39.77;24.10;101698.41;4966991;28;45552;-68
2021/08/27 09:04:49;;;;;;;;;5.50;5.00;;;;;40.92;18.50;101701.47;4959479;28;46016;-69
2021/08/27 09:07:15;;;;;;;;;3.00;3.00;;;;;41.70;21.96;101699.44;4963728;28;45405;-76
2021/08/27 09:09:43;;;;;;;;;4.00;3.00;;;;;42.94;20.83;101697.53;4965280;28;46023;-70
2021/08/27 09:12:26;;;;;;;;;3.50;3.50;;;;;44.18;19.87;101704.44;4972212;28;45672;-72
2021/08/27 09:15:01;;;;;;;;;2.75;2.75;;;;;44.82;19.26;101712.91;4963422;28;45425;-64
2021/08/27 09:17:36;;;;;;;;;5.75;4.00;;;;;45.02;17.98;101709.00;4964342;28;45562;-65
2021/08/27 09:20:05;;;;;;;;;6.75;4.00;;;;;45.41;15.46;101708.34;4973683;28;46013;-72
2021/08/27 09:22:49;;;;;;;;;4.50;3.00;;;;;44.95;14.61;101694.91;4961427;28;45688;-72
2021/08/27 09:25:17;;;;;;;;;6.25;4.25;;;;;44.18;18.13;101704.44;4955522;28;45970;-71
2021/08/27 09:28:12;;;;;;;;;2.00;1.25;;;;;43.35;15.44;101706.78;4959520;28;45547;-73
2021/08/27 09:30:52;;;;;;;;;2.00;1.00;;;;;42.72;17.38;101703.50;4963739;28;46246;-66
2021/08/27 09:33:22;;;;;;;;;3.00;2.00;;;;;42.94;18.43;101703.09;4958703;28;45830;-72
2021/08/27 09:36:05;;;;;;;;;4.00;3.00;;;;;42.02;18.85;101698.69;4972829;27;45546;-72
2021/08/27 09:38:38;;;;;;;;;4.00;2.50;;;;;40.62;19.41;101706.13;4958988;28;45464;-66
2021/08/27 09:41:07;;;;;;;;;4.75;2.75;;;;;38.54;20.48;101706.56;4957620;28;45638;-64
2021/08/27 09:43:54;;;;;;;;;3.50;1.25;;;;;36.49;22.35;101708.88;4957731;28;45600;-64
2021/08/27 09:46:36;;;;;;;;;2.25;1.00;;;;;37.51;21.34;101703.38;4957293;28;45616;-65
2021/08/27 09:49:29;;;;;;;;;0.00;0.00;;;;;37.60;21.37;101709.03;4959901;28;45479;-65
2021/08/27 09:51:56;;;;;;;;;1.00;0.00;;;;;37.05;22.33;101707.09;4956642;28;47052;-72
2021/08/27 09:54:24;;;;;;;;;0.00;0.00;;;;;36.41;20.35;101709.56;4956757;28;45682;-72
2021/08/27 09:56:53;;;;;;;;;1.00;0.50;;;;;36.10;23.22;101699.03;4960450;28;45554;-64
2021/08/27 09:59:35;;;;;;;;;1.50;0.25;;;;;36.42;22.00;101699.38;4958452;28;45537;-70
2021/08/27 10:02:03;;;;;;;;;0.00;0.00;;;;;36.47;22.32;101702.03;4962408;28;46081;-65
2021/08/27 10:04:29;;;;;;;;;0.50;0.00;;;;;36.47;21.75;101702.84;4956992;28;45526;-72
2021/08/27 10:06:55;;;;;;;;;0.00;0.00;;;;;36.44;22.33;101703.47;4955851;28;46178;-65
2021/08/27 10:09:21;;;;;;;;;1.00;0.00;;;;;36.36;22.48;101693.16;4963790;28;45577;-71
2021/08/27 10:11:49;;;;;;;;;1.00;0.00;;;;;36.53;22.69;101690.66;4959399;28;47014;-65
2021/08/27 10:14:14;;;;;;;;;0.75;0.00;;;;;36.44;22.28;101688.88;4959776;28;45579;-65
2021/08/27 10:16:41;;;;;;;;;1.25;0.00;;;;;36.38;22.69;101693.66;4959254;28;45520;-65
2021/08/27 10:19:07;;;;;;;;;0.00;0.00;;;;;36.46;22.75;101692.97;4962653;28;45476;-71
2021/08/27 10:21:32;;;;;;;;;0.00;0.00;;;;;36.29;22.24;101704.53;4976538;27;45922;-64
2021/08/27 10:23:58;;;;;;;;;1.00;0.00;;;;;35.91;22.73;101703.75;4963359;28;45538;-64
2021/08/27 10:26:27;;;;;;;;;0.00;0.00;;;;;35.63;22.83;101700.81;4958580;28;45528;-64
2021/08/27 10:28:53;;;;;;;;;3.25;1.00;;;;;35.38;23.42;101701.13;4956480;28;45496;-65
2021/08/27 10:31:39;;;;;;;;;0.00;0.00;;;;;34.55;23.63;101687.41;4960685;28;45548;-65
2021/08/27 10:34:05;;;;;;;;;0.00;0.00;;;;;33.51;23.75;101684.75;4961364;28;45598;-74
2021/08/27 10:36:30;;;;;;;;;0.00;0.00;;;;;32.71;24.09;101693.69;4962538;28;45495;-73
2021/08/27 10:38:57;;;;;;;;;0.00;0.00;;;;;32.68;23.20;101689.59;4962558;28;45674;-70
2021/08/27 10:41:33;;;;;;;;;0.00;0.00;;;;;32.81;23.99;101685.47;4960885;28;45643;-71
2021/08/27 10:44:00;;;;;;;;;0.00;0.00;;;;;32.82;23.39;101689.06;4959148;28;45482;-69
2021/08/27 10:46:43;;;;;;;;;0.00;0.00;;;;;32.40;24.30;101682.75;4965771;28;45519;-66
2021/08/27 10:49:22;;;;;;;;;0.00;0.00;;;;;32.42;24.63;101674.25;4970460;28;45474;-77
2021/08/27 10:51:53;;;;;;;;;0.00;0.00;;;;;32.67;23.28;101677.03;4962297;28;48170;-74
2021/08/27 10:54:19;;;;;;;;;0.00;0.00;;;;;32.39;24.01;101683.03;4969518;27;46700;-66
2021/08/27 10:56:53;;;;;;;;;1.50;0.00;;;;;32.41;25.16;101683.56;4969389;28;45512;-65
2021/08/27 10:59:21;;;;;;;;;1.00;0.00;;;;;32.03;25.11;101693.94;4960316;28;45618;-75
2021/08/27 11:02:00;;;;;;;;;1.00;0.25;;;;;31.24;26.04;101684.88;4958020;28;45609;-65
2021/08/27 11:04:27;;;;;;;;;1.00;0.00;;;;;30.46;26.11;101685.38;4954242;28;45673;-66
2021/08/27 11:06:53;;;;;;;;;0.00;0.00;;;;;29.75;27.06;101690.94;4956045;28;45520;-67
2021/08/27 11:09:18;;;;;;;;;1.75;0.00;;;;;29.07;27.76;101682.13;4964028;28;45374;-72
2021/08/27 11:11:44;;;;;;;;;1.00;0.00;;;;;28.49;28.15;101698.63;4955690;28;46330;-65
2021/08/27 11:14:22;;;;;;;;;1.50;0.00;;;;;28.72;28.80;101686.75;4961469;28;45532;-66
2021/08/27 11:16:59;;;;;;;;;0.00;0.00;;;;;29.54;27.66;101676.22;4964591;28;45547;-66
2021/08/27 11:19:29;;;;;;;;;0.00;0.00;;;;;30.22;27.09;101666.63;4962708;28;45571;-71
2021/08/27 11:22:21;;;;;;;;;0.50;0.00;;;;;30.84;25.81;101678.91;4956729;28;46280;-65
2021/08/27 11:25:07;;;;;;;;;1.25;0.00;;;;;31.29;24.88;101684.88;4957772;28;45520;-64
2021/08/27 11:27:33;;;;;;;;;0.00;0.00;;;;;31.88;25.12;101675.56;4954870;28;45541;-73